createdAt,value
2023-03-10T00:00:29.443Z,99226.38
2023-03-10T00:03:33.762Z,99216.97
2023-03-10T00:06:38.664Z,99219.50
2023-03-10T00:09:43.214Z,99207.44
2023-03-10T00:12:47.563Z,99184.06
2023-03-10T00:15:51.634Z,99174.72
2023-03-10T00:18:56.369Z,99173.94
2023-03-10T00:22:02.508Z,99162.16
2023-03-10T00:25:09.306Z,99173.28
2023-03-10T00:28:13.919Z,99163.75
2023-03-10T00:31:25.108Z,99158.97
2023-03-10T00:34:29.722Z,99143.50
2023-03-10T00:37:38.198Z,99141.94
2023-03-10T00:40:42.512Z,99141.25
2023-03-10T00:43:47.206Z,99146.44
2023-03-10T00:46:51.602Z,99141.81
2023-03-10T00:49:55.972Z,99140.22
2023-03-10T00:53:00.211Z,99142.97
2023-03-10T00:56:16.033Z,99132.91
2023-03-10T00:59:20.263Z,99127.66
2023-03-10T01:02:24.816Z,99117.22
2023-03-10T01:05:29.615Z,99112.03
2023-03-10T01:08:34.084Z,99112.94
2023-03-10T01:11:38.428Z,99110.34
2023-03-10T01:14:42.713Z,99094.19
2023-03-10T01:17:47.072Z,99102.81
2023-03-10T01:20:51.938Z,99089.25
2023-03-10T01:23:56.428Z,99083.41
2023-03-10T01:27:00.683Z,99070.19
2023-03-10T01:30:05.840Z,99069.44
2023-03-10T01:33:11.701Z,99065.19
2023-03-10T01:36:26.164Z,99053.00
2023-03-10T01:39:30.324Z,99035.78
2023-03-10T01:42:34.909Z,99035.06
2023-03-10T01:45:38.978Z,99025.66
2023-03-10T01:48:43.651Z,99017.31
2023-03-10T01:52:02.088Z,99004.28
2023-03-10T01:55:13.448Z,99005.91
2023-03-10T01:58:20.488Z,99010.19
2023-03-10T02:01:25.577Z,98998.75
2023-03-10T02:04:40.816Z,98993.47
2023-03-10T02:07:45.745Z,98991.13
2023-03-10T02:10:51.478Z,98983.50
2023-03-10T02:13:56.405Z,98986.72
2023-03-10T02:17:01.015Z,98987.81
2023-03-10T02:20:22.871Z,98995.41
2023-03-10T02:24:02.374Z,98993.41
2023-03-10T02:27:17.077Z,98988.44
2023-03-10T02:30:36.092Z,98971.97
2023-03-10T02:33:43.919Z,98965.94
2023-03-10T02:36:48.583Z,98972.91
2023-03-10T02:39:52.679Z,98972.97
2023-03-10T02:42:56.899Z,98967.97
2023-03-10T02:46:07.313Z,98960.16
2023-03-10T02:49:12.524Z,98955.72
2023-03-10T02:52:28.371Z,98947.19
2023-03-10T02:55:32.859Z,98942.72
2023-03-10T02:58:37.407Z,98949.66
2023-03-10T03:01:41.827Z,98944.41
2023-03-10T03:04:46.188Z,98939.44
2023-03-10T03:07:50.677Z,98934.31
2023-03-10T03:10:56.428Z,98926.38
2023-03-10T03:14:00.871Z,98917.09
2023-03-10T03:17:05.148Z,98919.69
2023-03-10T03:20:14.004Z,98916.22
2023-03-10T03:23:20.274Z,98917.91
2023-03-10T03:26:27.016Z,98921.22
2023-03-10T03:29:31.741Z,98904.00
2023-03-10T03:32:37.227Z,98902.41
2023-03-10T03:35:44.502Z,98891.25
2023-03-10T03:38:48.968Z,98881.69
2023-03-10T03:41:57.159Z,98883.34
2023-03-10T03:45:01.248Z,98876.50
2023-03-10T03:48:05.790Z,98874.69
2023-03-10T03:51:09.929Z,98870.28
2023-03-10T03:54:14.161Z,98864.47
2023-03-10T03:57:20.558Z,98868.75
2023-03-10T04:00:25.451Z,98861.81
2023-03-10T04:03:29.974Z,98857.59
2023-03-10T04:06:34.470Z,98857.34
2023-03-10T04:09:40.642Z,98850.53
2023-03-10T04:12:45.245Z,98847.09
2023-03-10T04:15:54.057Z,98846.44
2023-03-10T04:18:58.731Z,98848.91
2023-03-10T04:22:03.105Z,98841.22
2023-03-10T04:25:08.669Z,98833.34
2023-03-10T04:28:13.140Z,98843.34
2023-03-10T04:31:19.277Z,98843.66
2023-03-10T04:34:23.473Z,98829.72
2023-03-10T04:37:27.963Z,98833.06
2023-03-10T04:40:32.306Z,98836.31
2023-03-10T04:43:37.274Z,98835.78
2023-03-10T04:46:41.654Z,98833.91
2023-03-10T04:49:45.927Z,98826.34
2023-03-10T04:52:50.479Z,98820.09
2023-03-10T04:55:54.809Z,98812.28
2023-03-10T04:58:59.076Z,98818.41
2023-03-10T05:02:03.457Z,98817.56
2023-03-10T05:05:08.571Z,98827.06
2023-03-10T05:08:12.901Z,98820.09
2023-03-10T05:11:17.283Z,98810.44
2023-03-10T05:14:21.475Z,98813.03
2023-03-10T05:17:27.591Z,98812.13
2023-03-10T05:20:32.340Z,98810.31
2023-03-10T05:23:37.634Z,98809.50
2023-03-10T05:26:41.984Z,98799.16
2023-03-10T05:29:47.257Z,98794.81
2023-03-10T05:32:51.779Z,98800.09
2023-03-10T05:35:56.150Z,98795.06
2023-03-10T05:39:00.548Z,98808.63
2023-03-10T05:42:05.371Z,98795.06
2023-03-10T05:45:11.550Z,98801.94
2023-03-10T05:48:16.322Z,98805.28
2023-03-10T05:51:21.295Z,98802.00
2023-03-10T05:54:26.395Z,98795.06
2023-03-10T05:57:30.812Z,98787.25
2023-03-10T06:00:35.360Z,98782.13
2023-03-10T06:03:40.065Z,98789.13
2023-03-10T06:06:44.873Z,98777.03
2023-03-10T06:09:49.188Z,98780.56
2023-03-10T06:12:55.301Z,98774.66
2023-03-10T06:16:03.384Z,98781.25
2023-03-10T06:19:07.631Z,98782.06
2023-03-10T06:22:11.999Z,98787.31
2023-03-10T06:25:16.761Z,98789.97
2023-03-10T06:28:21.269Z,98777.72
2023-03-10T06:31:25.940Z,98774.25
2023-03-10T06:34:30.423Z,98773.50
2023-03-10T06:37:34.607Z,98775.94
2023-03-10T06:40:39.398Z,98767.25
2023-03-10T06:43:44.731Z,98777.72
2023-03-10T06:46:49.200Z,98766.38
2023-03-10T06:49:54.739Z,98767.25
2023-03-10T06:52:59.113Z,98767.25
2023-03-10T06:56:07.134Z,98765.47
2023-03-10T06:59:11.569Z,98772.03
2023-03-10T07:02:15.858Z,98767.00
2023-03-10T07:05:23.018Z,98779.94
2023-03-10T07:08:29.465Z,98789.09
2023-03-10T07:11:34.320Z,98792.66
2023-03-10T07:14:39.160Z,98793.22
2023-03-10T07:17:43.293Z,98791.25
2023-03-10T07:20:53.050Z,98800.72
2023-03-10T07:23:59.124Z,98800.44
2023-03-10T07:27:04.394Z,98798.50
2023-03-10T07:30:10.309Z,98791.34
2023-03-10T07:33:16.528Z,98808.84
2023-03-10T07:36:22.361Z,98815.66
2023-03-10T07:39:27.021Z,98818.34
2023-03-10T07:42:31.444Z,98817.44
2023-03-10T07:45:37.316Z,98806.19
2023-03-10T07:48:42.360Z,98823.72
2023-03-10T07:51:46.558Z,98822.09
2023-03-10T07:54:51.078Z,98817.81
2023-03-10T07:57:57.523Z,98821.28
2023-03-10T08:01:02.896Z,98829.78
2023-03-10T08:04:08.132Z,98814.16
2023-03-10T08:07:12.916Z,98820.16
2023-03-10T08:10:18.787Z,98835.53
2023-03-10T08:13:23.194Z,98843.22
2023-03-10T08:16:27.974Z,98846.44
2023-03-10T08:19:32.293Z,98849.66
2023-03-10T08:22:36.766Z,98851.34
2023-03-10T08:25:41.140Z,98854.56
2023-03-10T08:28:46.080Z,98851.09
2023-03-10T08:31:50.659Z,98864.03
2023-03-10T08:34:55.237Z,98868.44
2023-03-10T08:37:59.594Z,98866.59
2023-03-10T08:41:22.608Z,98878.41
2023-03-10T08:44:27.343Z,98880.03
2023-03-10T08:47:32.436Z,98875.00
2023-03-10T08:50:36.759Z,98879.16
2023-03-10T08:53:41.434Z,98875.56
2023-03-10T08:56:45.740Z,98878.66
2023-03-10T08:59:51.555Z,98879.63
2023-03-10T09:02:55.977Z,98879.34
2023-03-10T09:06:00.942Z,98865.75
2023-03-10T09:09:07.630Z,98870.19
2023-03-10T09:12:12.700Z,98861.53
2023-03-10T09:15:17.129Z,98863.25
2023-03-10T09:18:21.740Z,98866.03
2023-03-10T09:21:28.970Z,98874.47
2023-03-10T09:24:34.472Z,98872.50
2023-03-10T09:27:38.775Z,98873.53
2023-03-10T09:30:44.245Z,98862.34
2023-03-10T09:33:48.662Z,98861.78
2023-03-10T09:36:53.473Z,98858.22
2023-03-10T09:39:59.380Z,98867.59
2023-03-10T09:43:13.411Z,98865.91
2023-03-10T09:46:33.042Z,98872.38
2023-03-10T09:50:01.710Z,98863.53
2023-03-10T09:53:25.902Z,98876.63
2023-03-10T09:56:35.574Z,98876.69
2023-03-10T09:59:43.063Z,98870.25
2023-03-10T10:02:49.917Z,98879.47
2023-03-10T10:05:56.621Z,98880.03
2023-03-10T10:09:22.352Z,98874.56
2023-03-10T10:12:27.780Z,98871.09
2023-03-10T10:15:35.541Z,98878.94
2023-03-10T10:18:43.419Z,98890.53
2023-03-10T10:22:16.989Z,98884.38
2023-03-10T10:25:24.647Z,98881.00
2023-03-10T10:28:57.704Z,98887.09
2023-03-10T10:32:15.850Z,98889.41
2023-03-10T10:35:25.339Z,98889.56
2023-03-10T10:38:32.384Z,98886.03
2023-03-10T10:41:36.569Z,98882.25
2023-03-10T10:44:43.410Z,98886.50
2023-03-10T10:47:50.740Z,98875.72
2023-03-10T10:50:55.482Z,98883.06
2023-03-10T10:54:21.360Z,98872.69
2023-03-10T10:57:45.974Z,98874.34
2023-03-10T11:01:08.375Z,98870.09
2023-03-10T11:04:13.033Z,98873.53
2023-03-10T11:07:27.363Z,98867.38
2023-03-10T11:10:33.412Z,98867.38
2023-03-10T11:14:16.579Z,98865.09
2023-03-10T11:17:48.774Z,98863.94
2023-03-10T11:21:31.677Z,98874.84
2023-03-10T11:24:57.198Z,98860.69
2023-03-10T11:28:39.376Z,98867.66
2023-03-10T11:31:58.573Z,98866.69
2023-03-10T11:35:49.226Z,98865.84
2023-03-10T11:39:11.959Z,98859.81
2023-03-10T11:42:42.760Z,98857.75
2023-03-10T11:45:55.548Z,98854.25
2023-03-10T11:49:14.765Z,98853.50
2023-03-10T11:52:22.405Z,98846.47
2023-03-10T11:55:27.735Z,98851.06
2023-03-10T11:58:58.564Z,98859.88
2023-03-10T12:02:34.256Z,98852.41
2023-03-10T12:05:55.308Z,98855.16
2023-03-10T12:09:02.864Z,98847.38
2023-03-10T12:12:14.185Z,98848.59
2023-03-10T12:15:36.923Z,98850.03
2023-03-10T12:18:41.638Z,98837.78
2023-03-10T12:22:06.262Z,98847.72
2023-03-10T12:25:29.841Z,98841.41
2023-03-10T12:28:34.691Z,98847.72
2023-03-10T12:31:39.284Z,98838.59
2023-03-10T12:34:44.168Z,98844.06
2023-03-10T12:37:48.617Z,98836.16
2023-03-10T12:40:53.378Z,98843.47
2023-03-10T12:44:30.101Z,98843.63
2023-03-10T12:48:21.466Z,98843.47
2023-03-10T12:52:24.270Z,98843.47
2023-03-10T12:55:30.684Z,98840.28
2023-03-10T12:58:37.416Z,98835.09
2023-03-10T13:01:55.113Z,98835.56
2023-03-10T13:05:18.383Z,98838.75
2023-03-10T13:08:41.537Z,98840.50
2023-03-10T13:11:57.538Z,98832.22
2023-03-10T13:15:04.338Z,98835.56
2023-03-10T13:18:22.699Z,98844.22
2023-03-10T13:21:39.282Z,98850.97
2023-03-10T13:24:56.236Z,98856.91
2023-03-10T13:28:11.016Z,98845.19
2023-03-10T13:31:15.576Z,98845.91
2023-03-10T13:34:23.752Z,98845.75
2023-03-10T13:37:28.477Z,98849.94
2023-03-10T13:40:33.380Z,98850.69
2023-03-10T13:43:48.615Z,98867.19
2023-03-10T13:47:01.444Z,98869.50
2023-03-10T13:50:16.013Z,98867.88
2023-03-10T13:53:28.036Z,98869.66
2023-03-10T13:56:38.829Z,98875.66
2023-03-10T13:59:43.475Z,98866.31
2023-03-10T14:02:50.874Z,98878.13
2023-03-10T14:05:55.440Z,98870.19
2023-03-10T14:09:20.367Z,98859.88
2023-03-10T14:12:47.749Z,98853.94
2023-03-10T14:15:55.956Z,98859.56
2023-03-10T14:19:02.202Z,98863.50
2023-03-10T14:22:43.478Z,98884.94
2023-03-10T14:25:52.024Z,98885.28
2023-03-10T14:28:56.671Z,98877.56
2023-03-10T14:32:00.938Z,98877.41
2023-03-10T14:35:12.443Z,98874.03
2023-03-10T14:38:17.640Z,98867.03
2023-03-10T14:41:25.220Z,98885.44
2023-03-10T14:44:31.052Z,98881.38
2023-03-10T14:47:36.960Z,98883.22
2023-03-10T14:50:41.896Z,98885.97
2023-03-10T14:53:47.134Z,98873.81
2023-03-10T14:56:58.982Z,98867.97
2023-03-10T15:00:08.028Z,98864.63
2023-03-10T15:03:13.585Z,98861.44
2023-03-10T15:06:20.084Z,98864.78
2023-03-10T15:09:24.937Z,98867.06
2023-03-10T15:12:30.438Z,98867.75
2023-03-10T15:15:42.144Z,98856.53
2023-03-10T15:18:49.207Z,98867.22
2023-03-10T15:21:54.920Z,98875.91
2023-03-10T15:24:59.691Z,98880.94
2023-03-10T15:28:04.148Z,98879.13
2023-03-10T15:31:08.775Z,98875.75
2023-03-10T15:34:13.825Z,98876.09
2023-03-10T15:37:18.363Z,98873.41
2023-03-10T15:40:27.531Z,98869.22
2023-03-10T15:43:33.253Z,98872.09
2023-03-10T15:46:39.130Z,98866.00
2023-03-10T15:49:47.153Z,98887.44
2023-03-10T15:53:02.322Z,98882.41
2023-03-10T15:56:09.292Z,98878.44
2023-03-10T15:59:17.380Z,98878.66
2023-03-10T16:02:22.566Z,98885.75
2023-03-10T16:05:27.118Z,98894.22
2023-03-10T16:08:37.240Z,98889.03
2023-03-10T16:11:41.665Z,98879.72
2023-03-10T16:14:45.937Z,98883.38
2023-03-10T16:17:50.368Z,98882.44
2023-03-10T16:21:03.685Z,98890.47
2023-03-10T16:24:08.844Z,98897.16
2023-03-10T16:27:13.524Z,98910.34
2023-03-10T16:30:18.992Z,98913.88
2023-03-10T16:33:23.463Z,98921.31
2023-03-10T16:36:29.270Z,98937.59
2023-03-10T16:39:33.979Z,98933.47
2023-03-10T16:42:38.965Z,98936.81
2023-03-10T16:45:48.576Z,98940.53
2023-03-10T16:48:55.003Z,98939.06
2023-03-10T16:52:10.610Z,98946.16
2023-03-10T16:55:17.930Z,98939.94
2023-03-10T16:58:22.065Z,98946.03
2023-03-10T17:01:27.040Z,98941.81
2023-03-10T17:04:31.499Z,98956.66
2023-03-10T17:07:40.482Z,98973.13
2023-03-10T17:10:49.081Z,98977.66
2023-03-10T17:13:56.455Z,98965.09
2023-03-10T17:17:01.474Z,98972.19
2023-03-10T17:20:07.256Z,98965.44
2023-03-10T17:23:12.117Z,98971.44
2023-03-10T17:26:18.527Z,98971.75
2023-03-10T17:29:22.766Z,98969.22
2023-03-10T17:32:27.663Z,98973.81
2023-03-10T17:35:37.565Z,98969.50
2023-03-10T17:38:43.226Z,98974.59
2023-03-10T17:41:48.047Z,98997.38
2023-03-10T17:44:52.560Z,98994.22
2023-03-10T17:47:56.973Z,99006.59
2023-03-10T17:51:01.425Z,99011.25
2023-03-10T17:54:05.767Z,99021.75
2023-03-10T17:57:10.561Z,99029.88
2023-03-10T18:00:15.896Z,99036.00
2023-03-10T18:03:20.882Z,99037.91
2023-03-10T18:06:30.079Z,99038.28
2023-03-10T18:09:34.467Z,99054.06
2023-03-10T18:12:38.785Z,99057.66
2023-03-10T18:15:49.356Z,99064.75
2023-03-10T18:18:55.016Z,99077.03
2023-03-10T18:21:59.865Z,99089.19
2023-03-10T18:25:04.146Z,99085.56
2023-03-10T18:28:08.747Z,99090.22
2023-03-10T18:31:21.084Z,99092.91
2023-03-10T18:34:25.344Z,99107.53
2023-03-10T18:37:32.565Z,99110.06
2023-03-10T18:40:37.090Z,99119.75
2023-03-10T18:43:41.779Z,99125.75
2023-03-10T18:46:46.433Z,99135.31
2023-03-10T18:49:52.008Z,99142.22
2023-03-10T18:52:56.379Z,99149.19
2023-03-10T18:56:01.362Z,99163.88
2023-03-10T18:59:06.025Z,99169.03
2023-03-10T19:02:14.886Z,99187.34
2023-03-10T19:05:20.168Z,99192.47
2023-03-10T19:08:27.390Z,99198.59
2023-03-10T19:11:37.169Z,99212.44
2023-03-10T19:14:42.784Z,99224.22
2023-03-10T19:17:47.331Z,99227.88
2023-03-10T19:20:57.651Z,99232.19
2023-03-10T19:24:01.962Z,99238.38
2023-03-10T19:27:06.396Z,99246.03
2023-03-10T19:30:15.826Z,99251.25
2023-03-10T19:34:54.302Z,99258.22
2023-03-10T19:37:58.878Z,99277.13
2023-03-10T19:41:05.415Z,99288.38
2023-03-10T19:44:10.642Z,99291.91
2023-03-10T19:47:17.462Z,99304.97
2023-03-10T19:50:22.100Z,99313.56
2023-03-10T19:53:29.486Z,99313.56
2023-03-10T19:56:34.105Z,99314.63
2023-03-10T19:59:39.582Z,99329.22
2023-03-10T20:02:44.840Z,99339.50
2023-03-10T20:05:49.372Z,99348.22
2023-03-10T20:08:54.561Z,99355.91
2023-03-10T20:11:59.039Z,99349.81
2023-03-10T20:15:04.962Z,99369.84
2023-03-10T20:18:09.139Z,99370.78
2023-03-10T20:21:13.251Z,99375.09
2023-03-10T20:24:18.379Z,99389.72
2023-03-10T20:27:25.296Z,99397.59
2023-03-10T20:30:31.128Z,99404.53
2023-03-10T20:33:36.812Z,99397.69
2023-03-10T20:36:41.074Z,99412.31
2023-03-10T20:39:45.282Z,99413.09
2023-03-10T20:42:51.430Z,99417.47
2023-03-10T20:45:56.039Z,99436.53
2023-03-10T20:49:00.291Z,99436.50
2023-03-10T20:52:04.800Z,99437.47
2023-03-10T20:55:36.120Z,99446.91
2023-03-10T20:58:40.955Z,99459.00
2023-03-10T21:01:45.610Z,99468.44
2023-03-10T21:04:50.227Z,99463.25
2023-03-10T21:07:54.570Z,99466.84
2023-03-10T21:10:59.129Z,99474.56
2023-03-10T21:14:03.807Z,99479.94
2023-03-10T21:17:08.694Z,99484.22
2023-03-10T21:20:19.820Z,99488.44
2023-03-10T21:23:24.340Z,99480.81
2023-03-10T21:26:29.563Z,99493.69
2023-03-10T21:29:35.518Z,99497.19
2023-03-10T21:32:40.175Z,99501.44
2023-03-10T21:35:44.751Z,99515.25
2023-03-10T21:38:50.218Z,99515.94
2023-03-10T21:41:55.107Z,99518.53
2023-03-10T21:44:59.485Z,99523.75
2023-03-10T21:48:04.383Z,99534.19
2023-03-10T21:51:14.858Z,99540.50
2023-03-10T21:54:19.482Z,99548.00
2023-03-10T21:57:24.189Z,99554.78
2023-03-10T22:00:28.546Z,99559.94
2023-03-10T22:03:35.355Z,99565.38
2023-03-10T22:06:40.141Z,99565.47
2023-03-10T22:09:44.520Z,99572.34
2023-03-10T22:12:49.178Z,99579.22
2023-03-10T22:15:53.807Z,99584.38
2023-03-10T22:18:58.005Z,99585.28
2023-03-10T22:22:02.654Z,99593.00
2023-03-10T22:25:07.631Z,99586.13
2023-03-10T22:28:12.360Z,99596.47
2023-03-10T22:31:16.825Z,99605.16
2023-03-10T22:34:21.526Z,99613.59
2023-03-10T22:37:25.883Z,99616.22
2023-03-10T22:40:30.598Z,99618.00
2023-03-10T22:43:34.861Z,99621.47
2023-03-10T22:46:42.665Z,99641.97
2023-03-10T22:49:47.180Z,99640.34
2023-03-10T22:52:52.064Z,99642.16
2023-03-10T22:55:56.681Z,99647.22
2023-03-10T22:59:03.825Z,99660.94
2023-03-10T23:02:08.540Z,99658.31
2023-03-10T23:05:13.838Z,99661.88
2023-03-10T23:08:18.421Z,99666.19
2023-03-10T23:11:23.600Z,99682.47
2023-03-10T23:14:28.107Z,99686.66
2023-03-10T23:17:32.284Z,99696.09
2023-03-10T23:20:45.208Z,99702.88
2023-03-10T23:23:49.616Z,99701.31
2023-03-10T23:26:53.787Z,99705.59
2023-03-10T23:29:58.020Z,99708.19
2023-03-10T23:33:03.562Z,99711.69
2023-03-10T23:36:08.372Z,99716.88
2023-03-10T23:39:13.547Z,99722.94
2023-03-10T23:42:18.055Z,99728.19
2023-03-10T23:45:25.625Z,99735.91
2023-03-10T23:48:29.904Z,99737.69
2023-03-10T23:51:34.413Z,99749.72
2023-03-10T23:54:39.002Z,99748.97
2023-03-10T23:57:43.480Z,99756.75
